createdAt,value
2018-07-21T00:02:20.500Z,8.53
2018-07-21T00:04:49.063Z,7.50
2018-07-21T00:07:17.403Z,6.90
2018-07-21T00:09:45.716Z,7.85
2018-07-21T00:12:14.078Z,7.62
2018-07-21T00:14:42.459Z,10.32
2018-07-21T00:17:10.809Z,9.95
2018-07-21T00:19:39.182Z,7.13
2018-07-21T00:22:07.781Z,10.43
2018-07-21T00:24:36.083Z,9.00
2018-07-21T00:27:04.429Z,8.13
2018-07-21T00:29:32.758Z,9.75
2018-07-21T00:32:01.075Z,8.07
2018-07-21T00:34:29.404Z,8.30
2018-07-21T00:36:57.690Z,9.23
2018-07-21T00:39:26.035Z,7.75
2018-07-21T00:41:54.401Z,8.33
2018-07-21T00:44:22.968Z,7.85
2018-07-21T00:46:51.291Z,8.63
2018-07-21T00:49:19.736Z,8.75
2018-07-21T00:51:48.036Z,8.93
2018-07-21T00:54:16.363Z,10.18
2018-07-21T00:56:44.778Z,13.93
2018-07-21T00:59:13.084Z,9.95
2018-07-21T01:01:41.474Z,11.83
2018-07-21T01:04:09.798Z,9.68
2018-07-21T01:06:38.153Z,11.30
2018-07-21T01:09:08.801Z,12.05
2018-07-21T01:11:37.141Z,9.60
2018-07-21T01:14:05.658Z,11.00
2018-07-21T01:16:34.016Z,9.23
2018-07-21T01:19:02.347Z,6.67
2018-07-21T01:21:30.706Z,8.15
2018-07-21T01:23:59.055Z,9.18
2018-07-21T01:26:27.371Z,9.25
2018-07-21T01:28:55.789Z,13.93
2018-07-21T01:31:24.133Z,8.48
2018-07-21T01:33:52.460Z,13.45
2018-07-21T01:36:20.773Z,11.85
2018-07-21T01:38:49.122Z,7.87
2018-07-21T01:41:17.465Z,9.20
2018-07-21T01:43:45.764Z,9.58
2018-07-21T01:46:14.101Z,12.23
2018-07-21T01:48:42.426Z,8.50
2018-07-21T01:51:10.862Z,10.33
2018-07-21T01:53:39.163Z,9.80
2018-07-21T01:56:07.505Z,11.30
2018-07-21T01:58:35.821Z,7.40
2018-07-21T02:01:04.253Z,7.35
2018-07-21T02:03:32.588Z,8.70
2018-07-21T02:06:00.958Z,8.80
2018-07-21T02:08:29.279Z,8.58
2018-07-21T02:10:57.632Z,7.20
2018-07-21T02:13:25.980Z,7.80
2018-07-21T02:15:54.280Z,9.40
2018-07-21T02:18:22.622Z,15.53
2018-07-21T02:20:50.935Z,10.15
2018-07-21T02:23:19.274Z,8.60
2018-07-21T02:25:47.626Z,10.60
2018-07-21T02:28:16.037Z,10.88
2018-07-21T02:30:44.351Z,7.75
2018-07-21T02:33:12.760Z,10.28
2018-07-21T02:35:41.164Z,9.85
2018-07-21T02:38:09.488Z,10.10
2018-07-21T02:40:37.794Z,8.60
2018-07-21T02:43:06.460Z,13.72
2018-07-21T02:45:34.857Z,9.05
2018-07-21T02:48:03.178Z,9.98
2018-07-21T02:50:31.549Z,8.80
2018-07-21T02:53:00.238Z,8.83
2018-07-21T02:55:29.314Z,10.20
2018-07-21T02:57:57.647Z,10.93
2018-07-21T03:00:26.107Z,8.68
2018-07-21T03:02:54.460Z,12.80
2018-07-21T03:05:22.838Z,11.18
2018-07-21T03:07:51.180Z,10.28
2018-07-21T03:10:19.481Z,13.08
2018-07-21T03:12:47.790Z,11.93
2018-07-21T03:15:16.140Z,12.00
2018-07-21T03:17:44.453Z,8.35
2018-07-21T03:20:12.800Z,10.60
2018-07-21T03:22:41.132Z,8.67
2018-07-21T03:25:09.545Z,9.50
2018-07-21T03:27:37.924Z,12.73
2018-07-21T03:30:06.303Z,9.70
2018-07-21T03:32:34.601Z,9.63
2018-07-21T03:35:02.945Z,10.77
2018-07-21T03:37:31.284Z,12.07
2018-07-21T03:39:59.734Z,14.05
2018-07-21T03:42:28.017Z,12.87
2018-07-21T03:44:56.395Z,12.15
2018-07-21T03:47:24.731Z,12.40
2018-07-21T03:49:53.217Z,15.10
2018-07-21T03:52:21.556Z,14.57
2018-07-21T03:54:49.908Z,13.10
2018-07-21T03:57:18.290Z,11.40
2018-07-21T03:59:46.575Z,11.90
2018-07-21T04:02:14.924Z,10.40
2018-07-21T04:04:43.296Z,9.87
2018-07-21T04:07:12.164Z,12.35
2018-07-21T04:09:40.495Z,12.50
2018-07-21T04:12:08.848Z,13.40
2018-07-21T04:14:37.246Z,13.40
2018-07-21T04:17:05.610Z,14.05
2018-07-21T04:19:33.984Z,14.20
2018-07-21T04:22:02.374Z,12.63
2018-07-21T04:24:30.706Z,11.08
2018-07-21T04:26:59.046Z,10.20
2018-07-21T04:29:27.376Z,10.03
2018-07-21T04:31:55.720Z,12.00
2018-07-21T04:34:24.075Z,14.20
2018-07-21T04:36:52.497Z,12.13
2018-07-21T04:39:20.890Z,14.50
2018-07-21T04:41:49.281Z,11.48
2018-07-21T04:44:17.605Z,11.35
2018-07-21T04:46:45.943Z,12.10
2018-07-21T04:49:14.246Z,12.18
2018-07-21T04:51:42.589Z,12.82
2018-07-21T04:54:10.943Z,16.45
2018-07-21T04:56:39.296Z,13.28
2018-07-21T04:59:07.611Z,13.95
2018-07-21T05:01:35.993Z,12.20
2018-07-21T05:04:04.390Z,12.50
2018-07-21T05:06:32.752Z,12.30
2018-07-21T05:09:01.099Z,12.60
2018-07-21T05:11:29.435Z,10.40
2018-07-21T05:13:57.834Z,11.40
2018-07-21T05:16:26.286Z,13.13
2018-07-21T05:18:55.316Z,11.05
2018-07-21T05:21:23.671Z,13.32
2018-07-21T05:23:51.999Z,13.83
2018-07-21T05:26:20.333Z,12.13
2018-07-21T05:28:48.959Z,11.90
2018-07-21T05:31:17.318Z,12.80
2018-07-21T05:33:45.645Z,14.55
2018-07-21T05:36:13.990Z,13.28
2018-07-21T05:38:42.350Z,14.63
2018-07-21T05:41:10.786Z,11.90
2018-07-21T05:43:39.123Z,12.10
2018-07-21T05:46:07.497Z,12.63
2018-07-21T05:48:36.060Z,12.63
2018-07-21T05:51:04.358Z,13.57
2018-07-21T05:53:32.735Z,13.10
2018-07-21T05:56:01.094Z,12.70
2018-07-21T05:58:29.435Z,12.53
2018-07-21T06:00:57.846Z,13.58
2018-07-21T06:03:26.320Z,17.43
2018-07-21T06:05:54.669Z,15.03
2018-07-21T06:08:22.992Z,13.43
2018-07-21T06:10:51.577Z,13.75
2018-07-21T06:13:19.901Z,13.93
2018-07-21T06:15:48.257Z,15.60
2018-07-21T06:18:16.625Z,17.87
2018-07-21T06:20:45.021Z,14.93
2018-07-21T06:23:13.361Z,13.28
2018-07-21T06:25:41.728Z,13.80
2018-07-21T06:28:10.137Z,15.03
2018-07-21T06:30:38.373Z,14.20
2018-07-21T06:33:06.857Z,15.93
2018-07-21T06:35:35.320Z,17.55
2018-07-21T06:38:03.608Z,17.42
2018-07-21T06:40:31.963Z,16.23
2018-07-21T06:43:00.300Z,17.25
2018-07-21T06:45:28.827Z,16.82
2018-07-21T06:47:57.212Z,16.85
2018-07-21T06:50:25.494Z,17.80
2018-07-21T06:52:53.828Z,20.72
2018-07-21T06:55:22.155Z,20.37
2018-07-21T06:57:50.547Z,19.48
2018-07-21T07:00:18.910Z,17.65
2018-07-21T07:02:47.531Z,22.98
2018-07-21T07:05:15.869Z,19.75
2018-07-21T07:07:44.201Z,23.65
2018-07-21T07:10:12.632Z,18.98
2018-07-21T07:12:40.959Z,24.67
2018-07-21T07:15:09.286Z,23.75
2018-07-21T07:17:37.584Z,21.57
2018-07-21T07:20:05.952Z,25.37
2018-07-21T07:22:34.253Z,21.47
2018-07-21T07:25:02.614Z,24.65
2018-07-21T07:27:31.033Z,20.65
2018-07-21T07:29:59.306Z,22.85
2018-07-21T07:32:27.759Z,23.55
2018-07-21T07:34:56.111Z,20.80
2018-07-21T07:37:24.437Z,20.27
2018-07-21T07:39:52.786Z,20.82
2018-07-21T07:42:21.122Z,24.80
2018-07-21T07:44:49.424Z,21.02
2018-07-21T07:47:17.751Z,22.77
2018-07-21T07:49:46.087Z,23.87
2018-07-21T07:52:14.480Z,22.35
2018-07-21T07:54:42.814Z,21.12
2018-07-21T07:57:11.213Z,19.48
2018-07-21T07:59:39.601Z,23.67
2018-07-21T08:02:07.947Z,20.37
2018-07-21T08:04:36.339Z,20.65
2018-07-21T08:07:04.679Z,19.55
2018-07-21T08:09:33.020Z,26.68
2018-07-21T08:12:01.354Z,19.77
2018-07-21T08:14:29.764Z,20.83
2018-07-21T08:16:58.079Z,21.10
2018-07-21T08:19:26.480Z,22.45
2018-07-21T08:21:54.834Z,23.75
2018-07-21T08:24:23.302Z,23.67
2018-07-21T08:26:51.719Z,23.65
2018-07-21T08:29:20.034Z,20.77
2018-07-21T08:31:48.423Z,22.50
2018-07-21T08:34:16.709Z,22.27
2018-07-21T08:36:45.204Z,23.27
2018-07-21T08:39:13.572Z,19.92
2018-07-21T08:41:41.953Z,21.73
2018-07-21T08:44:10.285Z,23.67
2018-07-21T08:46:38.601Z,24.60
2018-07-21T08:49:06.964Z,32.20
2018-07-21T08:51:35.339Z,20.43
2018-07-21T08:54:03.677Z,21.40
2018-07-21T08:56:32.294Z,20.23
2018-07-21T08:59:00.726Z,17.48
2018-07-21T09:01:29.097Z,17.12
2018-07-21T09:03:57.451Z,20.25
2018-07-21T09:06:25.831Z,19.98
2018-07-21T09:08:54.131Z,18.57
2018-07-21T09:11:22.494Z,22.40
2018-07-21T09:13:50.816Z,24.43
2018-07-21T09:16:19.214Z,21.95
2018-07-21T09:18:47.575Z,21.75
2018-07-21T09:21:16.014Z,20.75
2018-07-21T09:23:44.383Z,23.30
2018-07-21T09:26:12.739Z,23.15
2018-07-21T09:28:41.098Z,21.87
2018-07-21T09:31:09.383Z,21.93
2018-07-21T09:33:37.740Z,21.12
2018-07-21T09:36:06.115Z,21.40
2018-07-21T09:38:34.495Z,24.90
2018-07-21T09:41:02.912Z,22.70
2018-07-21T09:43:31.231Z,22.70
2018-07-21T09:45:59.811Z,24.67
2018-07-21T09:48:28.216Z,22.57
2018-07-21T09:50:56.589Z,16.40
2018-07-21T09:53:24.941Z,16.40
2018-07-21T09:55:53.326Z,12.73
2018-07-21T09:58:21.646Z,21.48
2018-07-21T10:00:55.120Z,13.80
2018-07-21T10:03:23.525Z,11.83
2018-07-21T10:05:51.862Z,10.93
2018-07-21T10:08:20.240Z,13.45
2018-07-21T10:10:48.595Z,14.95
2018-07-21T10:13:16.972Z,13.13
2018-07-21T10:15:45.420Z,11.40
2018-07-21T10:18:13.775Z,9.97
2018-07-21T10:20:42.111Z,11.25
2018-07-21T10:23:10.509Z,11.20
2018-07-21T10:25:45.028Z,11.57
2018-07-21T10:28:18.791Z,11.90
2018-07-21T10:30:47.113Z,12.15
2018-07-21T10:33:15.472Z,10.75
2018-07-21T10:35:43.856Z,9.90
2018-07-21T10:38:12.202Z,11.25
2018-07-21T10:40:40.567Z,11.65
2018-07-21T10:43:08.876Z,11.78
2018-07-21T10:45:37.226Z,13.32
2018-07-21T10:48:05.557Z,10.20
2018-07-21T10:50:33.976Z,11.30
2018-07-21T10:53:02.277Z,10.20
2018-07-21T10:55:30.612Z,8.73
2018-07-21T10:57:58.958Z,11.73
2018-07-21T11:00:27.309Z,8.98
2018-07-21T11:02:55.672Z,8.83
2018-07-21T11:05:23.964Z,11.03
2018-07-21T11:07:52.399Z,9.85
2018-07-21T11:10:20.730Z,9.98
2018-07-21T11:12:49.035Z,14.00
2018-07-21T11:15:17.498Z,8.35
2018-07-21T11:17:45.784Z,9.73
2018-07-21T11:20:14.279Z,9.90
2018-07-21T11:22:42.580Z,10.15
2018-07-21T11:25:10.901Z,8.35
2018-07-21T11:27:39.241Z,10.03
2018-07-21T11:30:08.173Z,10.43
2018-07-21T11:32:36.482Z,10.23
2018-07-21T11:35:05.099Z,12.35
2018-07-21T11:37:33.440Z,9.60
2018-07-21T11:40:01.747Z,11.28
2018-07-21T11:42:30.092Z,11.33
2018-07-21T11:44:58.428Z,11.57
2018-07-21T11:47:27.067Z,10.23
2018-07-21T11:49:55.417Z,11.38
2018-07-21T11:52:24.172Z,10.50
2018-07-21T11:54:52.533Z,10.72
2018-07-21T11:57:20.849Z,12.30
2018-07-21T11:59:49.203Z,11.22
2018-07-21T12:02:17.559Z,10.90
2018-07-21T12:04:45.855Z,12.68
2018-07-21T12:07:14.224Z,7.10
2018-07-21T12:09:42.545Z,9.98
2018-07-21T12:12:10.947Z,11.55
2018-07-21T12:14:39.268Z,8.30
2018-07-21T12:17:07.585Z,8.13
2018-07-21T12:19:35.888Z,8.90
2018-07-21T12:22:04.256Z,8.75
2018-07-21T12:24:32.590Z,9.88
2018-07-21T12:27:01.028Z,7.35
2018-07-21T12:29:29.351Z,6.87
2018-07-21T12:31:57.867Z,10.20
2018-07-21T12:34:26.295Z,9.28
2018-07-21T12:36:54.610Z,10.98
2018-07-21T12:39:22.928Z,9.05
2018-07-21T12:41:51.264Z,9.30
2018-07-21T12:44:19.673Z,9.18
2018-07-21T12:46:48.017Z,17.67
2018-07-21T12:49:16.404Z,9.30
2018-07-21T12:51:44.723Z,12.37
2018-07-21T12:54:13.072Z,10.07
2018-07-21T12:56:41.379Z,9.40
2018-07-21T12:59:09.785Z,11.55
2018-07-21T13:01:38.118Z,7.85
2018-07-21T13:04:06.479Z,10.13
2018-07-21T13:06:34.770Z,7.35
2018-07-21T13:09:03.207Z,6.83
2018-07-21T13:11:31.524Z,9.98
2018-07-21T13:13:59.864Z,8.40
2018-07-21T13:16:28.312Z,8.75
2018-07-21T13:18:56.784Z,9.53
2018-07-21T13:21:25.120Z,10.08
2018-07-21T13:23:53.701Z,6.90
2018-07-21T13:26:22.057Z,9.05
2018-07-21T13:28:50.382Z,7.78
2018-07-21T13:31:18.900Z,9.83
2018-07-21T13:33:47.387Z,9.90
2018-07-21T13:36:15.686Z,9.63
2018-07-21T13:38:43.990Z,9.57
2018-07-21T13:41:12.302Z,10.08
2018-07-21T13:43:40.704Z,10.03
2018-07-21T13:46:09.052Z,9.10
2018-07-21T13:48:37.381Z,7.05
2018-07-21T13:51:05.746Z,11.73
2018-07-21T13:53:34.108Z,7.90
2018-07-21T13:56:02.508Z,7.30
2018-07-21T13:58:31.000Z,8.68
2018-07-21T14:00:59.380Z,8.93
2018-07-21T14:03:27.738Z,10.75
2018-07-21T14:05:56.096Z,7.53
2018-07-21T14:08:24.411Z,14.37
2018-07-21T14:10:52.778Z,11.10
2018-07-21T14:13:21.237Z,9.78
2018-07-21T14:15:49.569Z,11.65
2018-07-21T14:18:17.984Z,10.70
2018-07-21T14:20:47.135Z,8.53
2018-07-21T14:23:15.466Z,14.00
2018-07-21T14:25:43.884Z,12.60
2018-07-21T14:28:12.312Z,10.97
2018-07-21T14:30:40.683Z,10.07
2018-07-21T14:33:08.990Z,10.48
2018-07-21T14:35:37.322Z,9.98
2018-07-21T14:38:06.112Z,10.70
2018-07-21T14:40:34.479Z,10.53
2018-07-21T14:43:02.831Z,14.33
2018-07-21T14:45:31.147Z,11.97
2018-07-21T14:47:59.461Z,12.00
2018-07-21T14:50:27.790Z,10.40
2018-07-21T14:52:56.160Z,10.65
2018-07-21T14:55:24.598Z,12.78
2018-07-21T14:57:52.911Z,18.52
2018-07-21T15:00:21.556Z,26.50
2018-07-21T15:02:49.900Z,6.95
2018-07-21T15:05:18.257Z,0.80
2018-07-21T15:07:46.640Z,1.00
2018-07-21T15:10:14.977Z,0.80
2018-07-21T15:12:43.731Z,0.80
2018-07-21T15:15:12.060Z,0.80
2018-07-21T15:17:40.535Z,0.80
2018-07-21T15:20:08.813Z,0.80
2018-07-21T15:22:37.192Z,1.30
2018-07-21T15:25:05.558Z,0.80
2018-07-21T15:27:33.925Z,0.80
2018-07-21T15:30:02.295Z,0.80
2018-07-21T15:32:30.606Z,0.80
2018-07-21T15:34:58.967Z,1.50
2018-07-21T15:37:27.275Z,0.80
2018-07-21T15:39:55.748Z,0.80
2018-07-21T15:42:23.980Z,0.80
2018-07-21T15:44:52.317Z,0.80
2018-07-21T15:47:20.612Z,0.80
2018-07-21T15:49:49.395Z,0.80
2018-07-21T15:52:17.716Z,0.80
2018-07-21T15:54:46.106Z,1.00
2018-07-21T15:57:14.933Z,0.90
2018-07-21T15:59:43.273Z,0.80
2018-07-21T16:02:11.577Z,0.80
2018-07-21T16:04:39.888Z,0.80
2018-07-21T16:07:08.287Z,0.78
2018-07-21T16:09:36.661Z,0.80
2018-07-21T16:12:05.033Z,0.80
2018-07-21T16:14:33.348Z,0.80
2018-07-21T16:17:01.695Z,0.80
2018-07-21T16:19:30.088Z,0.80
2018-07-21T16:21:58.568Z,0.80
2018-07-21T16:24:26.952Z,0.80
2018-07-21T16:26:55.375Z,0.80
2018-07-21T16:29:23.685Z,0.80
2018-07-21T16:31:51.984Z,0.80
2018-07-21T16:34:20.335Z,0.80
2018-07-21T16:36:48.858Z,0.80
2018-07-21T16:39:17.188Z,1.10
2018-07-21T16:41:45.536Z,0.80
2018-07-21T16:44:13.859Z,0.80
2018-07-21T16:46:42.203Z,0.80
2018-07-21T16:49:10.617Z,0.80
2018-07-21T16:51:38.975Z,0.80
2018-07-21T16:54:07.323Z,0.80
2018-07-21T16:56:35.680Z,0.80
2018-07-21T16:59:04.067Z,0.80
2018-07-21T17:01:32.469Z,0.80
2018-07-21T17:04:00.812Z,0.80
2018-07-21T17:06:29.121Z,0.80
2018-07-21T17:08:57.959Z,0.80
2018-07-21T17:11:26.393Z,1.70
2018-07-21T17:13:54.755Z,0.80
2018-07-21T17:16:23.153Z,1.10
2018-07-21T17:18:51.495Z,0.80
2018-07-21T17:21:19.869Z,0.80
2018-07-21T17:23:48.268Z,0.80
2018-07-21T17:26:16.585Z,0.80
2018-07-21T17:28:45.023Z,0.80
2018-07-21T17:31:13.354Z,0.80
2018-07-21T17:33:41.750Z,0.70
2018-07-21T17:36:10.115Z,0.98
2018-07-21T17:38:38.465Z,0.90
2018-07-21T17:41:06.765Z,0.80
2018-07-21T17:43:35.116Z,0.80
2018-07-21T17:46:03.441Z,0.80
2018-07-21T17:48:31.755Z,0.80
2018-07-21T17:51:00.120Z,0.80
2018-07-21T17:53:28.428Z,0.80
2018-07-21T17:55:56.820Z,0.80
2018-07-21T17:58:25.150Z,0.80
2018-07-21T18:00:53.473Z,0.80
2018-07-21T18:03:21.800Z,0.80
2018-07-21T18:05:50.368Z,0.80
2018-07-21T18:08:18.696Z,0.80
2018-07-21T18:10:46.985Z,1.00
2018-07-21T18:13:15.339Z,0.80
2018-07-21T18:15:43.656Z,0.80
2018-07-21T18:18:12.342Z,0.80
2018-07-21T18:20:40.734Z,0.80
2018-07-21T18:23:09.092Z,0.80
2018-07-21T18:25:37.622Z,1.00
2018-07-21T18:28:06.051Z,0.90
2018-07-21T18:30:34.397Z,0.80
2018-07-21T18:33:09.107Z,0.80
2018-07-21T18:35:37.590Z,0.80
2018-07-21T18:38:06.057Z,0.80
2018-07-21T18:40:34.422Z,0.80
2018-07-21T18:43:02.773Z,0.80
2018-07-21T18:45:31.178Z,0.80
2018-07-21T18:47:59.543Z,0.80
2018-07-21T18:50:27.959Z,0.95
2018-07-21T18:52:56.309Z,0.80
2018-07-21T18:55:24.707Z,0.80
2018-07-21T18:57:53.225Z,0.80
2018-07-21T19:00:21.612Z,0.80
2018-07-21T19:02:50.032Z,0.80
2018-07-21T19:05:18.460Z,0.80
2018-07-21T19:07:47.626Z,0.80
2018-07-21T19:10:16.534Z,0.90
2018-07-21T19:12:47.753Z,0.80
2018-07-21T19:15:21.587Z,0.85
2018-07-21T19:17:50.111Z,0.80
2018-07-21T19:20:23.665Z,0.80
2018-07-21T19:22:52.140Z,0.80
2018-07-21T19:25:25.683Z,0.80
2018-07-21T19:27:54.088Z,0.80
2018-07-21T19:30:22.442Z,0.80
2018-07-21T19:32:56.215Z,0.80
2018-07-21T19:35:24.572Z,0.90
2018-07-21T19:37:52.970Z,0.95
2018-07-21T19:40:21.337Z,0.90
2018-07-21T19:42:49.826Z,1.30
2018-07-21T19:45:18.180Z,0.70
2018-07-21T19:47:46.654Z,0.80
2018-07-21T19:50:14.915Z,0.80
2018-07-21T19:52:43.369Z,0.80
2018-07-21T19:55:11.970Z,0.80
2018-07-21T19:57:40.348Z,0.80
2018-07-21T20:00:08.802Z,0.80
2018-07-21T20:02:37.155Z,0.80
2018-07-21T20:05:05.707Z,0.80
2018-07-21T20:07:34.754Z,0.70
2018-07-21T20:10:03.072Z,0.80
2018-07-21T20:12:31.409Z,0.80
2018-07-21T20:14:59.784Z,1.80
2018-07-21T20:17:28.141Z,0.70
2018-07-21T20:19:56.466Z,0.80
2018-07-21T20:22:24.850Z,0.80
2018-07-21T20:24:53.221Z,0.80
2018-07-21T20:27:21.548Z,0.80
2018-07-21T20:29:50.102Z,0.80
2018-07-21T20:32:18.453Z,1.60
2018-07-21T20:34:46.880Z,0.80
2018-07-21T20:37:15.169Z,0.80
2018-07-21T20:39:43.613Z,0.80
2018-07-21T20:42:11.973Z,0.80
2018-07-21T20:44:40.370Z,0.80
2018-07-21T20:47:08.708Z,0.80
2018-07-21T20:49:37.185Z,0.80
2018-07-21T20:52:05.523Z,0.80
2018-07-21T20:54:34.060Z,0.80
2018-07-21T20:57:02.415Z,0.80
2018-07-21T20:59:30.721Z,0.80
2018-07-21T21:01:59.077Z,0.80
2018-07-21T21:04:27.466Z,0.90
2018-07-21T21:06:55.814Z,0.85
2018-07-21T21:09:24.204Z,0.80
2018-07-21T21:11:52.581Z,0.80
2018-07-21T21:14:20.992Z,0.80
2018-07-21T21:16:49.293Z,0.90
2018-07-21T21:19:17.658Z,0.82
2018-07-21T21:21:45.976Z,0.80
2018-07-21T21:24:14.320Z,0.80
2018-07-21T21:26:42.612Z,0.80
2018-07-21T21:29:10.918Z,0.80
2018-07-21T21:31:39.283Z,1.10
2018-07-21T21:34:07.627Z,0.80
2018-07-21T21:36:35.972Z,0.90
2018-07-21T21:39:06.665Z,0.80
2018-07-21T21:41:34.967Z,0.80
2018-07-21T21:44:03.442Z,0.80
2018-07-21T21:46:31.755Z,0.80
2018-07-21T21:49:00.051Z,1.00
2018-07-21T21:51:28.413Z,0.80
2018-07-21T21:53:57.053Z,0.70
2018-07-21T21:56:25.554Z,0.90
2018-07-21T21:58:53.955Z,0.80
2018-07-21T22:01:22.235Z,0.80
2018-07-21T22:03:50.559Z,0.80
2018-07-21T22:06:19.000Z,0.80
2018-07-21T22:08:47.370Z,0.80
2018-07-21T22:11:15.733Z,0.80
2018-07-21T22:13:44.026Z,0.80
2018-07-21T22:16:12.442Z,0.80
2018-07-21T22:18:40.777Z,0.80
2018-07-21T22:21:09.164Z,0.80
2018-07-21T22:23:37.490Z,0.80
2018-07-21T22:26:05.846Z,0.80
2018-07-21T22:28:34.163Z,0.80
2018-07-21T22:31:02.504Z,0.80
2018-07-21T22:33:30.837Z,2.60
2018-07-21T22:35:59.268Z,0.80
2018-07-21T22:38:27.575Z,0.80
2018-07-21T22:40:55.879Z,0.90
2018-07-21T22:43:24.239Z,0.80
2018-07-21T22:45:52.576Z,0.80
2018-07-21T22:48:20.903Z,1.60
2018-07-21T22:50:49.226Z,0.80
2018-07-21T22:53:17.560Z,0.80
2018-07-21T22:55:45.867Z,0.80
2018-07-21T22:58:14.220Z,0.80
2018-07-21T23:00:42.638Z,0.80
2018-07-21T23:03:10.983Z,0.80
2018-07-21T23:05:39.297Z,0.80
2018-07-21T23:08:07.662Z,0.95
2018-07-21T23:10:35.965Z,0.80
2018-07-21T23:13:04.450Z,1.40
2018-07-21T23:15:32.728Z,0.80
2018-07-21T23:18:01.077Z,1.10
2018-07-21T23:20:29.422Z,1.20
2018-07-21T23:22:57.739Z,0.80
2018-07-21T23:25:26.096Z,0.80
2018-07-21T23:27:54.485Z,0.80
2018-07-21T23:30:22.885Z,1.10
2018-07-21T23:32:51.187Z,1.07
2018-07-21T23:35:19.547Z,1.00
2018-07-21T23:37:47.852Z,0.80
2018-07-21T23:40:16.240Z,1.00
2018-07-21T23:42:44.599Z,0.90
2018-07-21T23:45:12.945Z,0.80
2018-07-21T23:47:41.255Z,0.80
2018-07-21T23:50:09.777Z,0.80
2018-07-21T23:52:38.107Z,0.80
2018-07-21T23:55:07.531Z,0.80
2018-07-21T23:57:35.864Z,2.70
